Guatemala City, Guatemala
Current Conditions -  °F | °C
As of 5:00 AM on Thursday 27 Nov 2014 (Local Time) from MGGT Reporting Station
Scattered Clouds Scattered Clouds  
Wind Chill: 13°   Ceiling: Unl
Heat Index: 13°   Visibility: 6mi
Dew Point: 10°   Wind: 21mph
Humidity: 82%   Direction: 360°N
Pressure: 30.3"   Gusts: NA
Location:  14.58°N, 90.52°W
Report Text: MGGT 271100Z 36018KT 9999 FEW016 SCT080 13/10 Q1026 A3030
Loading
Personal Weather Stations






























Interactive Weather Map New forecast layout! Learn more

10-Day Weather Forecast

Advertisements
Track Severe Weather on mobile